createdAt,value
2022-12-23T00:04:51.196Z,96.77
2022-12-23T00:10:10.454Z,97.04
2022-12-23T00:15:30.098Z,97
2022-12-23T00:20:49.069Z,97.29
2022-12-23T00:26:08.115Z,97.49
2022-12-23T00:31:27.245Z,97.61
2022-12-23T00:36:46.150Z,97.76
2022-12-23T00:42:05.588Z,98.05
2022-12-23T00:47:25.176Z,98.37
2022-12-23T00:52:44.039Z,98.62
2022-12-23T00:58:03.025Z,98.85
2022-12-23T01:03:21.920Z,99.03
2022-12-23T01:14:00.503Z,99.2
2022-12-23T01:19:19.663Z,99.26
2022-12-23T01:24:39.171Z,99.18
2022-12-23T01:29:59.113Z,99.14
2022-12-23T01:35:17.851Z,99.15
2022-12-23T01:40:37.406Z,99.13
2022-12-23T01:45:56.576Z,99.13
2022-12-23T01:51:16.001Z,99.28
2022-12-23T01:56:35.337Z,99.39
2022-12-23T02:01:54.943Z,99.55
2022-12-23T02:07:13.848Z,99.68
2022-12-23T02:12:33.465Z,99.77
2022-12-23T02:17:53.120Z,99.83
2022-12-23T02:23:11.897Z,99.99
2022-12-23T02:28:31.614Z,99.99
2022-12-23T02:33:50.387Z,99.99
2022-12-23T02:39:09.192Z,99.99
2022-12-23T02:44:28.579Z,99.99
2022-12-23T02:49:47.592Z,99.99
2022-12-23T02:55:06.753Z,99.99
2022-12-23T03:00:26.020Z,99.99
2022-12-23T03:05:45.555Z,99.99
2022-12-23T03:11:04.889Z,99.99
2022-12-23T03:16:24.664Z,99.99
2022-12-23T03:21:43.693Z,99.99
2022-12-23T03:27:02.968Z,99.99
2022-12-23T03:32:22.251Z,99.99
2022-12-23T03:37:41.110Z,99.99
2022-12-23T03:43:00.449Z,99.99
2022-12-23T03:48:19.426Z,99.99
2022-12-23T03:53:38.765Z,99.99
2022-12-23T03:58:57.906Z,99.99
2022-12-23T04:04:16.695Z,99.99
2022-12-23T04:09:35.951Z,99.99
2022-12-23T04:14:55.435Z,99.99
2022-12-23T04:20:14.299Z,99.99
2022-12-23T04:25:34.654Z,99.99
2022-12-23T04:30:53.061Z,99.99
2022-12-23T04:36:12.418Z,99.98
2022-12-23T04:41:31.510Z,99.66
2022-12-23T04:46:51.008Z,99.41
2022-12-23T04:52:10.212Z,99.31
2022-12-23T04:57:29.472Z,99.14
2022-12-23T05:02:48.987Z,98.85
2022-12-23T05:08:07.553Z,98.67
2022-12-23T05:13:27.009Z,98.45
2022-12-23T05:18:46.464Z,97.81
2022-12-23T05:24:06.256Z,97.36
2022-12-23T05:29:25.446Z,96.54
2022-12-23T05:34:44.176Z,95.88
2022-12-23T05:40:03.590Z,95.71
2022-12-23T05:45:22.709Z,95.78
2022-12-23T05:50:41.745Z,95.5
2022-12-23T05:56:01.255Z,95.16
2022-12-23T06:01:20.950Z,95.47
2022-12-23T06:06:40.546Z,95.63
2022-12-23T06:12:00.146Z,95.97
2022-12-23T06:17:19.317Z,96.28
2022-12-23T06:22:38.203Z,97.03
2022-12-23T06:27:57.647Z,97.15
2022-12-23T06:33:17.354Z,97.71
2022-12-23T06:38:36.459Z,98.32
2022-12-23T06:43:55.917Z,98.82
2022-12-23T06:49:15.661Z,98.98
2022-12-23T06:54:33.986Z,98.46
2022-12-23T06:59:53.258Z,98.18
2022-12-23T07:05:12.889Z,97.48
2022-12-23T07:10:32.489Z,97.66
2022-12-23T07:15:51.549Z,97.51
2022-12-23T07:21:19.943Z,97.33
2022-12-23T07:26:30.479Z,97.09
2022-12-23T07:31:49.930Z,97.36
2022-12-23T07:37:09.532Z,96.91
2022-12-23T07:42:44.596Z,97.02
2022-12-23T07:47:48.205Z,96.83
2022-12-23T07:53:07.714Z,96.79
2022-12-23T07:58:26.653Z,97.08
2022-12-23T08:03:45.860Z,97.33
2022-12-23T08:09:05.259Z,97.52
2022-12-23T08:14:24.897Z,97.81
2022-12-23T08:19:43.700Z,98.28
2022-12-23T08:25:02.649Z,98.17
2022-12-23T08:30:21.608Z,97.83
2022-12-23T08:35:40.384Z,97.65
2022-12-23T08:40:59.706Z,97.21
2022-12-23T08:46:18.697Z,96.53
2022-12-23T08:51:38.141Z,96
2022-12-23T08:56:57.252Z,96.14
2022-12-23T09:02:17.193Z,96.21
2022-12-23T09:07:35.896Z,96.03
2022-12-23T09:12:57.941Z,95.68
2022-12-23T09:18:15.107Z,94.99
2022-12-23T09:23:34.519Z,95.01
2022-12-23T09:28:53.745Z,94.59
2022-12-23T09:34:13.254Z,94.22
2022-12-23T09:39:32.809Z,93.8
2022-12-23T09:44:52.500Z,93.26
2022-12-23T09:50:11.691Z,93.54
2022-12-23T09:55:30.395Z,93.37
2022-12-23T10:00:49.710Z,93.32
2022-12-23T10:06:09.132Z,93.69
2022-12-23T10:11:28.400Z,93.84
2022-12-23T10:16:47.653Z,93.29
2022-12-23T10:22:41.226Z,93.04
2022-12-23T10:27:59.771Z,92.86
2022-12-23T10:33:18.612Z,93.38
2022-12-23T10:38:37.470Z,93.27
2022-12-23T10:43:56.361Z,93.58
2022-12-23T10:49:15.853Z,93.76
2022-12-23T10:54:35.048Z,93.9
2022-12-23T10:59:54.103Z,93.99
2022-12-23T11:05:12.986Z,93.95
2022-12-23T11:10:31.848Z,94.03
2022-12-23T11:15:50.838Z,94.28
2022-12-23T11:21:10.333Z,94.08
2022-12-23T11:26:29.501Z,94.17
2022-12-23T11:31:49.220Z,93.76
2022-12-23T11:37:08.514Z,93.65
2022-12-23T11:42:27.657Z,93.81
2022-12-23T11:47:47.081Z,93.74
2022-12-23T11:53:06.357Z,93.96
2022-12-23T11:58:26.078Z,94.13
2022-12-23T12:03:45.044Z,94.83
2022-12-23T12:09:04.588Z,95.01
2022-12-23T12:14:23.658Z,95.81
2022-12-23T12:19:43.258Z,96.59
2022-12-23T12:25:02.751Z,97.45
2022-12-23T12:30:21.595Z,98.06
2022-12-23T12:35:40.618Z,98.44
2022-12-23T12:41:00.151Z,98.64
2022-12-23T12:46:19.940Z,98.92
2022-12-23T12:51:38.969Z,99.14
2022-12-23T12:56:57.890Z,99.37
2022-12-23T13:02:17.448Z,99.5
2022-12-23T13:07:36.856Z,99.65
2022-12-23T13:12:56.250Z,99.74
2022-12-23T13:18:15.660Z,99.81
2022-12-23T13:23:43.253Z,99.96
2022-12-23T13:28:54.565Z,99.99
2022-12-23T13:34:13.779Z,99.99
2022-12-23T13:39:33.420Z,99.99
2022-12-23T13:44:52.558Z,99.99
2022-12-23T13:50:11.533Z,99.99
2022-12-23T13:55:30.936Z,99.99
2022-12-23T14:00:50.700Z,99.99
2022-12-23T14:06:09.579Z,99.99
2022-12-23T14:11:29.151Z,99.99
2022-12-23T14:16:48.754Z,99.99
2022-12-23T14:22:07.927Z,99.93
2022-12-23T14:27:27.243Z,99.94
2022-12-23T14:32:46.643Z,99.96
2022-12-23T14:38:06.000Z,99.97
2022-12-23T14:43:24.744Z,99.99
2022-12-23T14:48:44.267Z,99.99
2022-12-23T14:54:03.328Z,99.99
2022-12-23T14:59:22.689Z,99.99
2022-12-23T15:04:41.803Z,99.99
2022-12-23T15:10:01.851Z,99.99
2022-12-23T15:15:20.542Z,99.99
2022-12-23T15:20:39.402Z,99.99
2022-12-23T15:25:58.151Z,99.99
2022-12-23T15:31:17.253Z,99.99
2022-12-23T15:36:37.169Z,99.99
2022-12-23T15:41:56.164Z,99.99
2022-12-23T15:47:15.935Z,99.99
2022-12-23T15:52:35.196Z,99.99
2022-12-23T15:57:54.893Z,99.99
2022-12-23T16:03:16.040Z,99.64
2022-12-23T16:08:32.940Z,99.07
2022-12-23T16:13:57.691Z,98.97
2022-12-23T16:19:11.449Z,99.03
2022-12-23T16:24:31.176Z,98.77
2022-12-23T16:30:00.827Z,98.38
2022-12-23T16:35:10.222Z,97.46
2022-12-23T16:40:29.885Z,96.19
2022-12-23T16:45:48.853Z,96.44
2022-12-23T16:51:07.384Z,97
2022-12-23T16:56:26.281Z,97.92
2022-12-23T17:01:45.933Z,98.57
2022-12-23T17:07:05.315Z,98.95
2022-12-23T17:12:24.114Z,98.99
2022-12-23T17:17:43.803Z,98.3
2022-12-23T17:23:03.085Z,97.28
2022-12-23T17:28:22.671Z,96.55
2022-12-23T17:33:41.929Z,96.88
2022-12-23T17:39:00.882Z,97.67
2022-12-23T17:44:19.863Z,97.76
2022-12-23T17:49:38.767Z,98.26
2022-12-23T17:54:57.723Z,98.19
2022-12-23T18:00:22.648Z,96.98
2022-12-23T18:05:35.714Z,96.1
2022-12-23T18:10:54.962Z,95.83
2022-12-23T18:16:13.805Z,95.11
2022-12-23T18:21:43.340Z,93.98
2022-12-23T18:26:52.445Z,93.06
2022-12-23T18:32:11.573Z,92.83
2022-12-23T18:37:30.515Z,92.1
2022-12-23T18:42:49.681Z,92.18
2022-12-23T18:48:09.133Z,92.5
2022-12-23T18:53:28.151Z,92.45
2022-12-23T18:58:47.513Z,92.25
2022-12-23T19:04:06.353Z,92.43
2022-12-23T19:09:26.012Z,91.74
2022-12-23T19:14:45.572Z,92.26
2022-12-23T19:20:05.091Z,93.56
2022-12-23T19:25:24.078Z,93.47
2022-12-23T19:30:43.343Z,93.22
2022-12-23T19:36:02.564Z,92.61
2022-12-23T19:41:21.531Z,92.5
2022-12-23T19:46:41.271Z,93.03
2022-12-23T19:52:00.380Z,92.45
2022-12-23T19:57:19.997Z,92.22
2022-12-23T20:02:39.262Z,92.29
2022-12-23T20:07:58.900Z,91.42
2022-12-23T20:13:17.806Z,89.67
2022-12-23T20:18:36.977Z,89.11
2022-12-23T20:23:55.870Z,88.76
2022-12-23T20:29:15.434Z,89.49
2022-12-23T20:34:39.018Z,90.24
2022-12-23T20:39:54.040Z,91.45
2022-12-23T20:45:13.110Z,92.31
2022-12-23T20:50:31.920Z,92.38
2022-12-23T20:55:50.887Z,91.91
2022-12-23T21:01:10.383Z,91.69
2022-12-23T21:06:29.889Z,92.38
2022-12-23T21:11:49.425Z,91.96
2022-12-23T21:17:08.343Z,89.18
2022-12-23T21:22:27.801Z,87.6
2022-12-23T21:27:47.824Z,86.98
2022-12-23T21:33:06.547Z,86.17
2022-12-23T21:38:25.451Z,85.04
2022-12-23T21:43:44.400Z,84.51
2022-12-23T21:49:03.778Z,84.12
2022-12-23T21:54:22.460Z,84.93
2022-12-23T21:59:41.583Z,85.21
2022-12-23T22:05:01.083Z,85.25
2022-12-23T22:10:20.346Z,84.54
2022-12-23T22:15:39.923Z,85.02
2022-12-23T22:20:59.083Z,85.19
2022-12-23T22:26:24.424Z,85.66
2022-12-23T22:31:37.670Z,86.19
2022-12-23T22:36:56.696Z,86.55
2022-12-23T22:42:16.058Z,86.75
2022-12-23T22:47:35.063Z,86.97
2022-12-23T22:52:53.952Z,87.21
2022-12-23T22:58:12.986Z,87.13
2022-12-23T23:03:31.692Z,87.11
2022-12-23T23:08:50.486Z,86.3
2022-12-23T23:14:10.205Z,86.26
2022-12-23T23:19:29.656Z,86.15
2022-12-23T23:24:49.004Z,85.75
2022-12-23T23:30:08.244Z,85.42
2022-12-23T23:35:26.965Z,84.49
2022-12-23T23:40:46.472Z,83.26
2022-12-23T23:46:06.094Z,82.39
2022-12-23T23:51:25.667Z,82.03
2022-12-23T23:56:45.016Z,81.98
